Time;durP1;ratioP1;P1;durP2;ratioP2;P2;SDS_P1;SDS_P2;PMS_P1;PMS_P2;Temp;Humidity;BMP_temperature;BMP_pressure;BME280_temperature;BME280_humidity;BME280_pressure;Samples;Min_cycle;Max_cycle;Signal;HPM_P1;HPM_P2
2021/09/27 00:01:06;;;;;;;5.35;2.60;;;18.40;99.90;;;;;;4974594;28;20069;-75
2021/09/27 00:03:32;;;;;;;11.68;2.75;;;18.40;99.90;;;;;;4974356;28;20034;-76
2021/09/27 00:05:58;;;;;;;10.93;3.33;;;18.40;99.90;;;;;;4974277;28;20493;-76
2021/09/27 00:08:25;;;;;;;9.82;3.75;;;18.40;99.90;;;;;;4974247;28;20447;-75
2021/09/27 00:10:57;;;;;;;10.02;3.00;;;18.40;99.90;;;;;;4972944;28;20404;-75
2021/09/27 00:13:25;;;;;;;7.82;2.72;;;18.40;99.90;;;;;;4974479;28;20042;-76
2021/09/27 00:15:53;;;;;;;10.32;2.63;;;18.30;99.90;;;;;;4974415;28;20030;-76
2021/09/27 00:18:20;;;;;;;5.45;2.45;;;18.40;99.90;;;;;;4974427;28;20030;-76
2021/09/27 00:20:50;;;;;;;11.45;3.10;;;18.40;99.90;;;;;;4974205;28;20031;-75
2021/09/27 00:23:17;;;;;;;7.72;2.67;;;18.30;99.90;;;;;;4974022;28;20043;-75
2021/09/27 00:25:43;;;;;;;11.65;3.33;;;18.30;99.90;;;;;;4974101;28;20034;-75
2021/09/27 00:28:09;;;;;;;12.40;3.17;;;18.30;99.90;;;;;;4974082;28;20563;-75
2021/09/27 00:30:35;;;;;;;7.38;2.67;;;18.30;99.90;;;;;;4974031;28;20063;-75
2021/09/27 00:33:01;;;;;;;6.35;2.47;;;18.40;99.90;;;;;;4973977;28;20037;-75
2021/09/27 00:35:29;;;;;;;10.77;2.78;;;18.30;99.90;;;;;;4974015;28;20094;-76
2021/09/27 00:37:56;;;;;;;11.10;2.80;;;18.40;99.90;;;;;;4973990;28;20110;-75
2021/09/27 00:40:28;;;;;;;9.15;2.88;;;18.30;99.90;;;;;;4974229;28;20019;-75
2021/09/27 00:42:54;;;;;;;12.07;3.10;;;18.30;99.90;;;;;;4973950;28;20035;-75
2021/09/27 00:45:24;;;;;;;11.57;2.58;;;18.40;99.90;;;;;;4973923;28;20074;-75
2021/09/27 00:47:50;;;;;;;9.93;2.35;;;18.30;99.90;;;;;;4974507;28;20366;-76
2021/09/27 00:50:18;;;;;;;6.13;2.53;;;18.30;99.90;;;;;;4973892;28;20085;-75
2021/09/27 00:52:45;;;;;;;12.65;3.33;;;18.30;99.90;;;;;;4973820;28;20473;-75
2021/09/27 00:55:14;;;;;;;8.48;2.58;;;18.30;99.90;;;;;;4974154;28;20051;-76
2021/09/27 00:57:40;;;;;;;7.78;2.83;;;18.30;99.90;;;;;;4973835;28;20019;-76
2021/09/27 01:00:10;;;;;;;8.23;2.75;;;18.30;99.90;;;;;;4974062;28;20050;-75
2021/09/27 01:02:36;;;;;;;11.13;2.60;;;18.30;99.90;;;;;;4974118;28;20114;-76
2021/09/27 01:05:04;;;;;;;13.75;3.40;;;18.30;99.90;;;;;;4974946;28;20066;-75
2021/09/27 01:07:40;;;;;;;8.55;2.67;;;18.30;99.90;;;;;;4977508;28;20034;-75
2021/09/27 01:10:35;;;;;;;10.38;3.00;;;18.30;99.90;;;;;;4977464;28;20031;-75
2021/09/27 01:13:33;;;;;;;10.00;2.50;;;18.30;99.90;;;;;;4977601;28;20063;-76
2021/09/27 01:16:20;;;;;;;6.82;2.97;;;18.30;99.90;;;;;;4977358;28;20019;-76
2021/09/27 01:19:23;;;;;;;8.23;2.97;;;18.40;99.90;;;;;;4977552;28;20034;-76
2021/09/27 01:22:01;;;;;;;11.02;3.33;;;18.40;99.90;;;;;;4977261;28;20023;-75
2021/09/27 01:25:06;;;;;;;10.20;3.30;;;18.40;99.90;;;;;;4976791;28;20043;-75
2021/09/27 01:27:40;;;;;;;9.95;3.10;;;18.40;99.90;;;;;;4936545;28;20034;-76
2021/09/27 01:30:16;;;;;;;5.28;2.58;;;18.40;99.90;;;;;;4977333;28;20110;-76
2021/09/27 01:32:55;;;;;;;5.78;2.75;;;18.40;99.90;;;;;;4977016;28;20031;-75
2021/09/27 01:35:21;;;;;;;8.20;2.90;;;18.40;99.90;;;;;;4977334;28;20034;-75
2021/09/27 01:38:14;;;;;;;6.15;3.55;;;18.40;99.90;;;;;;4976921;28;20338;-76
2021/09/27 01:41:04;;;;;;;11.80;3.22;;;18.40;99.90;;;;;;4976915;28;20023;-76
2021/09/27 01:43:41;;;;;;;5.20;2.25;;;18.40;99.90;;;;;;4976592;28;20038;-75
2021/09/27 01:46:10;;;;;;;7.15;2.60;;;18.40;99.90;;;;;;4976804;28;20031;-76
2021/09/27 01:48:38;;;;;;;11.65;3.50;;;18.40;99.90;;;;;;4977043;28;20031;-75
2021/09/27 01:51:09;;;;;;;10.10;3.22;;;18.40;99.90;;;;;;4976469;28;20389;-75
2021/09/27 01:53:49;;;;;;;7.15;3.78;;;18.40;99.90;;;;;;4974864;28;20473;-76
2021/09/27 01:56:28;;;;;;;12.63;3.65;;;18.40;99.90;;;;;;4977078;28;20058;-76
2021/09/27 01:59:14;;;;;;;16.42;3.40;;;18.40;99.90;;;;;;4976871;28;20027;-76
2021/09/27 02:02:10;;;;;;;8.60;3.50;;;18.40;99.90;;;;;;4976549;28;20027;-76
2021/09/27 02:04:38;;;;;;;5.78;2.63;;;18.40;99.90;;;;;;4946094;28;20054;-74
2021/09/27 02:07:05;;;;;;;5.72;2.88;;;18.40;99.90;;;;;;4976169;28;20031;-76
2021/09/27 02:09:34;;;;;;;9.38;3.28;;;18.40;99.90;;;;;;4976062;28;20483;-75
2021/09/27 02:12:17;;;;;;;10.05;3.42;;;18.40;99.90;;;;;;4975969;28;20027;-75
2021/09/27 02:14:52;;;;;;;9.70;3.03;;;18.40;99.90;;;;;;4974519;28;20035;-76
2021/09/27 02:17:28;;;;;;;8.52;3.60;;;18.40;99.90;;;;;;4975119;28;20444;-76
2021/09/27 02:20:16;;;;;;;8.07;3.28;;;18.40;99.90;;;;;;4975948;28;20022;-76
2021/09/27 02:23:02;;;;;;;7.05;3.55;;;18.30;99.90;;;;;;4975693;28;20497;-75
2021/09/27 02:25:34;;;;;;;6.90;3.17;;;18.30;99.90;;;;;;4974302;28;20037;-75
2021/09/27 02:28:12;;;;;;;9.90;3.25;;;18.30;99.90;;;;;;4976339;28;20050;-75
2021/09/27 02:30:47;;;;;;;11.82;3.30;;;18.30;99.90;;;;;;4976245;28;20489;-75
2021/09/27 02:33:33;;;;;;;6.88;3.15;;;18.30;99.90;;;;;;4975871;28;20035;-75
2021/09/27 02:36:11;;;;;;;8.10;3.28;;;18.30;99.90;;;;;;4974073;28;20118;-75
2021/09/27 02:38:53;;;;;;;9.57;3.35;;;18.30;99.90;;;;;;4976089;28;20449;-75
2021/09/27 02:41:45;;;;;;;12.07;3.58;;;18.30;99.90;;;;;;4975501;28;20054;-76
2021/09/27 02:44:10;;;;;;;9.25;3.25;;;18.30;99.90;;;;;;4952699;28;20122;-76
2021/09/27 02:46:44;;;;;;;7.75;3.17;;;18.30;99.90;;;;;;4975938;28;20131;-75
2021/09/27 02:49:12;;;;;;;9.40;3.08;;;18.30;99.90;;;;;;4975425;28;20151;-75
2021/09/27 02:51:42;;;;;;;7.55;3.17;;;18.30;99.90;;;;;;4975285;28;20049;-75
2021/09/27 02:54:09;;;;;;;8.10;3.60;;;18.30;99.90;;;;;;4975198;28;20081;-76
2021/09/27 02:56:46;;;;;;;10.00;3.25;;;18.20;99.90;;;;;;4975250;28;20535;-75
2021/09/27 02:59:30;;;;;;;8.57;3.67;;;18.30;99.90;;;;;;4975232;28;20026;-75
2021/09/27 03:02:04;;;;;;;7.78;3.65;;;18.30;99.90;;;;;;4973635;28;20037;-75
2021/09/27 03:04:53;;;;;;;11.32;3.80;;;18.30;99.90;;;;;;4975391;28;20031;-75
2021/09/27 03:07:37;;;;;;;9.48;3.67;;;18.30;99.90;;;;;;4947685;28;20035;-76
2021/09/27 03:10:15;;;;;;;10.60;3.78;;;18.30;99.90;;;;;;4975060;28;20060;-76
2021/09/27 03:13:04;;;;;;;8.15;3.53;;;18.30;99.90;;;;;;4973427;28;20033;-76
2021/09/27 03:15:41;;;;;;;7.50;3.20;;;18.30;99.90;;;;;;4975250;28;20022;-76
2021/09/27 03:18:23;;;;;;;8.88;4.03;;;18.30;99.90;;;;;;4975158;28;20015;-74
2021/09/27 03:21:29;;;;;;;7.07;3.55;;;18.30;99.90;;;;;;4974894;28;20027;-75
2021/09/27 03:24:07;;;;;;;8.07;3.47;;;18.30;99.90;;;;;;4974462;28;20053;-75
2021/09/27 03:27:01;;;;;;;8.43;3.72;;;18.30;99.90;;;;;;4974733;28;20027;-75
2021/09/27 03:29:54;;;;;;;7.13;3.40;;;18.20;99.90;;;;;;4974516;28;20019;-76
2021/09/27 03:32:29;;;;;;;6.25;3.53;;;18.20;99.90;;;;;;4975178;28;20035;-76
2021/09/27 03:35:13;;;;;;;8.50;3.67;;;18.20;99.90;;;;;;4973354;28;20081;-75
2021/09/27 03:38:07;;;;;;;8.88;3.45;;;18.20;99.90;;;;;;4974902;28;20033;-76
2021/09/27 03:41:10;;;;;;;5.60;3.13;;;18.20;99.90;;;;;;4974545;28;20061;-76
2021/09/27 03:43:57;;;;;;;7.35;3.20;;;18.20;99.90;;;;;;4974861;28;20038;-75
2021/09/27 03:46:52;;;;;;;8.02;3.83;;;18.20;99.90;;;;;;4973006;28;20027;-74
2021/09/27 03:49:44;;;;;;;6.82;3.28;;;18.20;99.90;;;;;;4953143;28;20046;-75
2021/09/27 03:52:37;;;;;;;8.73;3.42;;;18.10;99.90;;;;;;4972858;28;20464;-75
2021/09/27 03:55:16;;;;;;;7.90;3.47;;;18.10;99.90;;;;;;4973924;28;20485;-75
2021/09/27 03:57:57;;;;;;;7.25;3.30;;;18.00;99.90;;;;;;4974703;28;20095;-76
2021/09/27 04:00:49;;;;;;;5.22;3.38;;;17.90;99.90;;;;;;4974680;28;20051;-75
2021/09/27 04:03:43;;;;;;;6.10;3.53;;;17.90;99.90;;;;;;4974624;28;20077;-75
2021/09/27 04:06:23;;;;;;;7.30;3.58;;;17.90;99.90;;;;;;4974818;28;20027;-75
2021/09/27 04:08:49;;;;;;;7.30;3.33;;;17.90;99.90;;;;;;4974842;28;20102;-75
2021/09/27 04:11:31;;;;;;;11.30;3.72;;;17.90;99.90;;;;;;4974255;28;20495;-75
2021/09/27 04:14:13;;;;;;;7.15;3.35;;;17.90;99.90;;;;;;4974531;28;20022;-75
2021/09/27 04:17:23;;;;;;;7.28;3.88;;;17.90;99.90;;;;;;4974521;28;20018;-76
2021/09/27 04:20:08;;;;;;;9.77;3.92;;;17.90;99.90;;;;;;4962766;28;20046;-75
2021/09/27 04:22:42;;;;;;;7.00;3.80;;;17.90;99.90;;;;;;4972595;28;20058;-75
2021/09/27 04:25:11;;;;;;;7.40;3.75;;;17.80;99.90;;;;;;4974445;28;20084;-75
2021/09/27 04:28:27;;;;;;;9.13;3.80;;;17.70;99.90;;;;;;4974112;28;20489;-76
2021/09/27 04:31:12;;;;;;;10.07;4.20;;;17.70;99.90;;;;;;4974621;28;20033;-75
2021/09/27 04:33:58;;;;;;;8.27;3.65;;;17.60;99.90;;;;;;4974573;28;20035;-75
2021/09/27 04:36:31;;;;;;;6.53;3.65;;;17.60;99.90;;;;;;4974645;28;20073;-75
2021/09/27 04:39:03;;;;;;;9.70;4.20;;;17.60;99.90;;;;;;4974518;28;20483;-75
2021/09/27 04:41:42;;;;;;;6.68;3.90;;;17.60;99.90;;;;;;4977432;28;20027;-75
2021/09/27 04:44:12;;;;;;;7.72;3.58;;;17.60;99.90;;;;;;4978223;28;20023;-75
2021/09/27 04:47:08;;;;;;;8.50;3.70;;;17.60;99.90;;;;;;4978199;28;20046;-75
2021/09/27 04:49:54;;;;;;;7.18;3.97;;;17.60;99.90;;;;;;4977602;28;20070;-76
2021/09/27 04:52:47;;;;;;;8.98;4.22;;;17.50;99.90;;;;;;4977747;28;20031;-74
2021/09/27 04:55:25;;;;;;;9.45;3.75;;;17.50;99.90;;;;;;4977816;28;20019;-75
2021/09/27 04:58:21;;;;;;;9.10;4.65;;;17.50;99.90;;;;;;4977711;28;20034;-75
2021/09/27 05:01:38;;;;;;;9.80;4.28;;;17.50;99.90;;;;;;4977937;28;20077;-76
2021/09/27 05:04:40;;;;;;;9.23;4.68;;;17.40;99.90;;;;;;4944628;28;20089;-76
2021/09/27 05:07:50;;;;;;;10.73;4.03;;;17.50;99.90;;;;;;4976018;28;20392;-75
2021/09/27 05:10:18;;;;;;;9.40;4.60;;;17.50;99.90;;;;;;4977798;28;20030;-75
2021/09/27 05:13:09;;;;;;;11.45;4.35;;;17.50;99.90;;;;;;4977064;28;20023;-76
2021/09/27 05:15:53;;;;;;;;;;;17.50;99.90;;;;;;4977850;28;20106;-75
2021/09/27 05:18:47;;;;;;;8.65;4.45;;;17.60;99.90;;;;;;4977042;28;19942;-75
2021/09/27 05:21:25;;;;;;;10.43;4.40;;;17.50;99.90;;;;;;4971395;28;20038;-76
2021/09/27 05:24:20;;;;;;;8.98;4.40;;;17.50;99.90;;;;;;4975419;28;20051;-76
2021/09/27 05:27:14;;;;;;;8.30;4.25;;;17.50;99.90;;;;;;4970185;28;20046;-76
2021/09/27 05:30:10;;;;;;;10.23;4.20;;;17.50;99.90;;;;;;4977168;28;20015;-75
2021/09/27 05:33:08;;;;;;;10.70;4.25;;;17.50;99.90;;;;;;4977030;28;20482;-76
2021/09/27 05:35:36;;;;;;;9.30;4.13;;;17.60;99.90;;;;;;4966271;28;20035;-75
2021/09/27 05:38:22;;;;;;;8.80;4.00;;;17.50;99.90;;;;;;4975518;28;20027;-76
2021/09/27 05:41:01;;;;;;;7.43;3.55;;;17.60;99.90;;;;;;4976724;28;20109;-75
2021/09/27 05:43:58;;;;;;;7.85;3.20;;;17.60;99.90;;;;;;4977177;28;20031;-76
2021/09/27 05:46:30;;;;;;;6.93;2.90;;;17.50;99.90;;;;;;4968550;28;20043;-76
2021/09/27 05:49:03;;;;;;;7.57;2.90;;;17.50;99.90;;;;;;4976519;28;20035;-74
2021/09/27 05:51:36;;;;;;;8.70;2.97;;;17.60;99.90;;;;;;4974624;28;20475;-75
2021/09/27 05:54:27;;;;;;;6.70;2.88;;;17.50;99.90;;;;;;4976440;28;20094;-76
2021/09/27 05:57:22;;;;;;;4.50;2.40;;;17.60;99.90;;;;;;4976684;28;20105;-75
2021/09/27 06:00:11;;;;;;;3.58;2.10;;;17.60;99.90;;;;;;4976858;28;20027;-75
2021/09/27 06:03:11;;;;;;;4.95;2.05;;;17.60;99.90;;;;;;4974757;28;20031;-76
2021/09/27 06:05:47;;;;;;;4.15;1.58;;;17.60;99.90;;;;;;4976496;28;20023;-76
2021/09/27 06:08:23;;;;;;;3.90;1.60;;;17.60;99.90;;;;;;4976208;28;20038;-75
2021/09/27 06:11:05;;;;;;;5.15;1.65;;;17.60;99.90;;;;;;4976429;28;20568;-75
2021/09/27 06:13:34;;;;;;;6.50;1.55;;;17.60;99.90;;;;;;4976578;28;20027;-76
2021/09/27 06:16:12;;;;;;;4.28;1.73;;;17.70;99.90;;;;;;4976015;28;20037;-75
2021/09/27 06:19:06;;;;;;;6.10;1.52;;;17.70;99.90;;;;;;4974637;28;20023;-75
2021/09/27 06:22:09;;;;;;;6.13;2.17;;;17.70;99.90;;;;;;4975975;28;20393;-76
2021/09/27 06:24:57;;;;;;;8.13;2.00;;;17.70;99.90;;;;;;4976453;28;20046;-76
2021/09/27 06:27:48;;;;;;;3.35;1.30;;;17.70;99.90;;;;;;4976146;28;20385;-75
2021/09/27 06:30:39;;;;;;;2.53;1.08;;;17.70;99.90;;;;;;4975766;28;20393;-75
2021/09/27 06:33:31;;;;;;;1.80;0.70;;;17.70;99.90;;;;;;4974142;28;20130;-75
2021/09/27 06:35:58;;;;;;;2.80;0.80;;;17.60;99.90;;;;;;4953208;28;20074;-75
2021/09/27 06:38:32;;;;;;;2.22;0.90;;;17.50;99.90;;;;;;4976109;28;20022;-75
2021/09/27 06:40:59;;;;;;;1.55;0.52;;;17.30;99.90;;;;;;4975867;28;20022;-75
2021/09/27 06:43:26;;;;;;;0.88;0.52;;;17.30;99.90;;;;;;4975508;28;20027;-75
2021/09/27 06:45:53;;;;;;;2.60;0.80;;;17.30;99.90;;;;;;4975474;28;20030;-75
2021/09/27 06:48:20;;;;;;;3.35;0.70;;;17.30;99.90;;;;;;4975931;28;20026;-76
2021/09/27 06:50:46;;;;;;;2.30;0.50;;;17.30;99.90;;;;;;4975637;28;20035;-75
2021/09/27 06:53:12;;;;;;;2.45;0.80;;;17.30;99.90;;;;;;4975252;28;20157;-76
2021/09/27 06:55:38;;;;;;;3.10;0.77;;;17.10;99.90;;;;;;4975290;28;20062;-75
2021/09/27 06:58:03;;;;;;;3.40;0.90;;;17.10;99.90;;;;;;4975264;28;20437;-76
2021/09/27 07:00:31;;;;;;;6.10;0.93;;;17.00;99.90;;;;;;4976097;28;20033;-85
2021/09/27 07:02:57;;;;;;;2.63;0.70;;;17.00;99.90;;;;;;4985273;28;20030;-82
2021/09/27 07:05:24;;;;;;;3.05;0.60;;;17.00;99.90;;;;;;4994835;28;20038;-82
2021/09/27 07:07:49;;;;;;;6.35;1.02;;;16.90;99.90;;;;;;4975278;28;20031;-86
2021/09/27 07:10:20;;;;;;;2.88;0.70;;;17.00;99.90;;;;;;4975079;28;20035;-85
2021/09/27 07:12:45;;;;;;;2.30;0.47;;;17.00;99.90;;;;;;4975714;28;20030;-80
2021/09/27 07:15:12;;;;;;;4.55;0.95;;;17.00;99.90;;;;;;4975155;28;20030;-82
2021/09/27 07:17:39;;;;;;;3.08;0.82;;;16.90;99.90;;;;;;4989169;28;20015;-77
2021/09/27 07:20:07;;;;;;;4.95;0.85;;;16.90;99.90;;;;;;4986199;28;20394;-77
2021/09/27 07:22:33;;;;;;;1.88;0.60;;;17.00;99.90;;;;;;4974958;28;20039;-77
2021/09/27 07:24:59;;;;;;;3.15;1.25;;;17.10;99.90;;;;;;4975066;28;20080;-79
2021/09/27 07:27:25;;;;;;;2.95;0.80;;;17.10;99.90;;;;;;4975886;28;20508;-81
2021/09/27 07:29:50;;;;;;;2.75;0.52;;;17.00;99.90;;;;;;4974480;28;20031;-82
2021/09/27 07:32:16;;;;;;;3.20;0.45;;;17.00;99.90;;;;;;4974307;28;20604;-77
2021/09/27 07:34:42;;;;;;;1.60;0.50;;;16.90;99.90;;;;;;4973112;28;20053;-78
2021/09/27 07:37:07;;;;;;;1.95;0.43;;;16.80;99.90;;;;;;4974383;28;20045;-80
2021/09/27 07:39:33;;;;;;;2.50;0.55;;;16.80;99.90;;;;;;4974918;28;20091;-75
2021/09/27 07:42:00;;;;;;;5.45;0.55;;;16.80;99.90;;;;;;4979934;28;20022;-77
2021/09/27 07:44:25;;;;;;;1.50;0.73;;;16.60;99.90;;;;;;4993244;28;20057;-79
2021/09/27 07:46:51;;;;;;;2.38;0.40;;;16.70;99.90;;;;;;4994175;28;20054;-77
2021/09/27 07:49:17;;;;;;;1.40;0.55;;;16.80;99.90;;;;;;4993691;28;20117;-77
2021/09/27 07:51:43;;;;;;;3.92;0.70;;;16.90;99.20;;;;;;4994661;28;20069;-81
2021/09/27 07:54:08;;;;;;;2.30;0.60;;;17.20;99.90;;;;;;4994364;28;20014;-81
2021/09/27 07:56:34;;;;;;;2.60;0.50;;;17.70;98.70;;;;;;4992113;28;20029;-79
2021/09/27 07:59:01;;;;;;;2.85;0.70;;;18.10;97.30;;;;;;4979342;28;20022;-85
2021/09/27 08:01:27;;;;;;;2.33;0.88;;;18.40;95.80;;;;;;4974270;28;20113;-83
2021/09/27 08:03:53;;;;;;;3.58;0.60;;;18.60;94.40;;;;;;4974369;28;20077;-86
2021/09/27 08:06:19;;;;;;;2.58;0.75;;;18.80;94.30;;;;;;4973723;28;20031;-83
2021/09/27 08:08:44;;;;;;;3.80;0.82;;;19.20;94.60;;;;;;4975254;28;20105;-82
2021/09/27 08:11:10;;;;;;;4.38;1.17;;;19.60;93.60;;;;;;4974837;28;20053;-84
2021/09/27 08:13:36;;;;;;;3.00;0.80;;;19.50;93.60;;;;;;4974845;28;20035;-80
2021/09/27 08:16:03;;;;;;;3.55;1.00;;;19.80;92.70;;;;;;4978748;28;20027;-82
2021/09/27 08:18:29;;;;;;;2.25;0.80;;;19.60;93.30;;;;;;4978447;28;20034;-79
2021/09/27 08:21:02;;;;;;;4.63;1.20;;;19.60;93.80;;;;;;4978078;28;20106;-74
2021/09/27 08:23:28;;;;;;;3.42;1.00;;;20.10;91.70;;;;;;4992752;28;20046;-79
2021/09/27 08:25:55;;;;;;;3.95;1.10;;;20.20;89.40;;;;;;4991819;28;20032;-80
2021/09/27 08:28:24;;;;;;;2.53;0.70;;;20.40;89.50;;;;;;4989231;28;20030;-80
2021/09/27 08:30:58;;;;;;;6.32;1.70;;;20.80;89.60;;;;;;4997750;28;20029;-78
2021/09/27 08:33:24;;;;;;;6.65;1.25;;;21.00;86.30;;;;;;4997722;28;20023;-80
2021/09/27 08:35:52;;;;;;;4.72;1.10;;;21.20;84.50;;;;;;4997633;28;20032;-79
2021/09/27 08:38:19;;;;;;;3.88;1.00;;;21.50;81.60;;;;;;4984425;28;20501;-79
2021/09/27 08:40:57;;;;;;;4.32;1.20;;;21.40;80.70;;;;;;4980085;28;20046;-81
2021/09/27 08:43:44;;;;;;;4.03;1.05;;;21.40;81.60;;;;;;4979178;28;20564;-79
2021/09/27 08:46:20;;;;;;;9.18;1.70;;;21.80;79.00;;;;;;4978262;28;20031;-80
2021/09/27 08:48:52;;;;;;;5.50;1.10;;;22.10;80.10;;;;;;4977946;28;20042;-77
2021/09/27 08:51:18;;;;;;;4.85;1.30;;;22.50;76.10;;;;;;4977915;28;20500;-79
2021/09/27 08:53:51;;;;;;;8.20;1.65;;;22.80;73.20;;;;;;4982425;28;20027;-79
2021/09/27 08:56:35;;;;;;;3.58;1.17;;;22.70;74.30;;;;;;4985325;28;20033;-78
2021/09/27 08:59:33;;;;;;;4.80;0.90;;;22.90;75.10;;;;;;4995869;28;20551;-79
2021/09/27 09:02:16;;;;;;;2.22;0.95;;;23.30;73.00;;;;;;4977424;28;20027;-80
2021/09/27 09:05:05;;;;;;;4.47;1.15;;;23.40;72.50;;;;;;4977599;28;20022;-81
2021/09/27 09:07:33;;;;;;;5.90;1.80;;;23.90;69.30;;;;;;4977890;28;20035;-83
2021/09/27 09:10:06;;;;;;;4.55;0.95;;;23.90;68.00;;;;;;4977526;28;20085;-84
2021/09/27 09:12:38;;;;;;;4.60;1.20;;;24.10;67.00;;;;;;4980050;28;20027;-77
2021/09/27 09:15:21;;;;;;;6.00;1.00;;;23.90;66.60;;;;;;4997140;28;20081;-79
2021/09/27 09:18:02;;;;;;;5.63;1.23;;;23.80;67.00;;;;;;4994518;28;20030;-79
2021/09/27 09:20:50;;;;;;;3.38;1.05;;;23.90;65.70;;;;;;4996930;28;20508;-79
2021/09/27 09:23:31;;;;;;;3.78;1.05;;;23.90;66.30;;;;;;4996319;28;20523;-82
2021/09/27 09:26:00;;;;;;;5.60;1.20;;;23.20;66.70;;;;;;4994065;28;20495;-79
2021/09/27 09:28:25;;;;;;;5.32;1.25;;;22.90;70.10;;;;;;4995686;28;20440;-77
2021/09/27 09:31:04;;;;;;;7.45;1.40;;;23.00;71.00;;;;;;4990906;28;20033;-79
2021/09/27 09:33:50;;;;;;;5.95;1.50;;;22.90;71.10;;;;;;4977183;28;20524;-80
2021/09/27 09:36:24;;;;;;;5.07;1.50;;;22.90;70.60;;;;;;4984355;28;20038;-78
2021/09/27 09:38:49;;;;;;;3.72;1.27;;;23.10;69.00;;;;;;4983637;28;20030;-78
2021/09/27 09:41:16;;;;;;;4.43;1.13;;;23.00;70.00;;;;;;4977026;28;20232;-77
2021/09/27 09:43:47;;;;;;;2.92;0.95;;;23.10;67.90;;;;;;4976612;28;20511;-79
2021/09/27 09:46:15;;;;;;;4.45;1.33;;;22.80;67.20;;;;;;4976565;28;20791;-79
2021/09/27 09:49:03;;;;;;;6.22;1.30;;;22.60;67.70;;;;;;4976860;28;20385;-77
2021/09/27 09:51:45;;;;;;;3.30;0.93;;;22.30;70.60;;;;;;4981512;28;20023;-80
2021/09/27 09:54:38;;;;;;;3.22;1.05;;;22.40;69.90;;;;;;4991820;28;20106;-78
2021/09/27 09:57:15;;;;;;;5.45;0.95;;;22.30;69.80;;;;;;4975038;28;20393;-78
2021/09/27 09:59:52;;;;;;;6.80;1.08;;;22.50;66.90;;;;;;4976493;28;20023;-79
2021/09/27 10:02:21;;;;;;;3.35;1.05;;;21.90;68.50;;;;;;4976048;28;20030;-76
2021/09/27 10:04:57;;;;;;;3.88;1.00;;;21.80;69.00;;;;;;4975060;28;20054;-77
2021/09/27 10:07:36;;;;;;;5.10;1.70;;;21.00;71.10;;;;;;4975269;28;20061;-84
2021/09/27 10:10:08;;;;;;;4.43;1.00;;;21.00;70.80;;;;;;4976179;28;20597;-78
2021/09/27 10:12:45;;;;;;;4.68;1.63;;;20.70;70.70;;;;;;4994660;28;20042;-78
2021/09/27 10:15:43;;;;;;;6.57;1.77;;;20.70;72.60;;;;;;4994069;28;20515;-80
2021/09/27 10:18:31;;;;;;;5.55;1.50;;;20.90;72.40;;;;;;4964165;28;20043;-82
2021/09/27 10:21:19;;;;;;;2.45;1.23;;;21.00;71.00;;;;;;4977370;28;20500;-77
2021/09/27 10:23:52;;;;;;;6.70;1.50;;;20.80;70.30;;;;;;4995443;28;20085;-80
2021/09/27 10:26:23;;;;;;;4.20;1.40;;;20.90;71.20;;;;;;4995789;28;20019;-78
2021/09/27 10:28:52;;;;;;;5.13;1.30;;;20.80;70.90;;;;;;4993994;28;20027;-80
2021/09/27 10:31:21;;;;;;;7.05;1.50;;;20.90;72.40;;;;;;4995021;28;20019;-76
2021/09/27 10:33:52;;;;;;;4.75;1.17;;;21.00;73.20;;;;;;4993999;28;20030;-74
2021/09/27 10:36:27;;;;;;;4.35;1.35;;;21.10;69.30;;;;;;4975628;28;20019;-76
2021/09/27 10:38:58;;;;;;;3.50;1.15;;;20.90;69.90;;;;;;4972798;28;20038;-76
2021/09/27 10:41:55;;;;;;;7.63;1.58;;;20.90;69.90;;;;;;4972017;28;20027;-76
2021/09/27 10:44:32;;;;;;;7.85;1.25;;;20.60;70.90;;;;;;4972844;28;20030;-77
2021/09/27 10:47:06;;;;;;;4.63;1.40;;;20.50;71.60;;;;;;4972246;28;20051;-75
2021/09/27 10:49:37;;;;;;;4.75;1.30;;;20.50;71.30;;;;;;4973752;28;20027;-77
2021/09/27 10:52:32;;;;;;;4.90;1.58;;;20.60;70.70;;;;;;4974222;28;20169;-77
2021/09/27 10:55:12;;;;;;;4.38;1.20;;;20.50;71.60;;;;;;4975195;28;20420;-76
2021/09/27 10:57:42;;;;;;;;;;;20.40;71.70;;;;;;4975900;28;20437;-75
2021/09/27 11:00:39;;;;;;;4.13;1.45;;;20.30;71.00;;;;;;4975748;28;19913;-77
2021/09/27 11:03:08;;;;;;;3.03;1.15;;;20.20;72.30;;;;;;4970810;28;20119;-77
2021/09/27 11:05:54;;;;;;;9.90;1.63;;;20.30;71.50;;;;;;4975048;28;20469;-77
2021/09/27 11:08:32;;;;;;;4.43;1.40;;;20.40;69.90;;;;;;4975287;28;20088;-75
2021/09/27 11:11:37;;;;;;;4.00;1.20;;;20.30;71.30;;;;;;5111661;27;20369;-75
2021/09/27 11:14:48;;;;;;;5.78;1.40;;;20.30;70.70;;;;;;5100061;28;20036;-76
2021/09/27 11:17:46;;;;;;;7.70;1.45;;;20.20;71.00;;;;;;5108333;28;20031;-75
2021/09/27 11:20:12;;;;;;;4.03;1.42;;;20.30;73.00;;;;;;5105488;28;20115;-76
2021/09/27 11:22:54;;;;;;;4.93;1.27;;;20.40;70.80;;;;;;5111470;28;20102;-76
2021/09/27 11:25:22;;;;;;;7.05;1.40;;;20.40;70.10;;;;;;5111186;28;20073;-76
2021/09/27 11:28:25;;;;;;;3.42;1.20;;;20.30;69.90;;;;;;5110839;28;20499;-76
2021/09/27 11:31:08;;;;;;;6.28;2.13;;;20.30;70.40;;;;;;5110703;28;20466;-75
2021/09/27 11:33:33;;;;;;;4.65;1.10;;;20.20;70.80;;;;;;5111134;28;20495;-76
2021/09/27 11:36:26;;;;;;;5.47;1.25;;;20.20;69.80;;;;;;5110650;28;20037;-75
2021/09/27 11:39:04;;;;;;;5.97;1.55;;;20.20;72.10;;;;;;5096244;28;20089;-75
2021/09/27 11:41:33;;;;;;;3.85;1.48;;;20.30;71.50;;;;;;5110539;28;20028;-75
2021/09/27 11:44:11;;;;;;;2.63;0.90;;;20.40;72.30;;;;;;5110485;28;20151;-74
2021/09/27 11:46:39;;;;;;;4.63;1.27;;;20.40;71.50;;;;;;5110750;28;20103;-75
2021/09/27 11:49:25;;;;;;;7.10;1.38;;;20.40;69.40;;;;;;5110324;28;20027;-75
2021/09/27 11:52:17;;;;;;;4.18;1.30;;;20.40;70.10;;;;;;5108762;28;20498;-77
2021/09/27 11:55:00;;;;;;;6.40;1.20;;;20.40;71.50;;;;;;5110854;28;20589;-75
2021/09/27 11:57:40;;;;;;;4.95;1.20;;;20.40;69.70;;;;;;5110868;28;20531;-73
2021/09/27 12:00:09;;;;;;;4.63;1.38;;;20.40;70.30;;;;;;5110470;28;20464;-75
2021/09/27 12:02:52;;;;;;;3.58;0.88;;;20.40;69.90;;;;;;5110162;28;20039;-75
2021/09/27 12:05:31;;;;;;;4.28;1.20;;;20.20;69.60;;;;;;5110711;28;20154;-75
2021/09/27 12:08:09;;;;;;;5.80;1.40;;;20.10;70.10;;;;;;5110365;28;20028;-77
2021/09/27 12:10:59;;;;;;;3.08;1.00;;;20.10;71.50;;;;;;5103316;28;20044;-77
2021/09/27 12:13:34;;;;;;;2.90;1.00;;;20.10;72.00;;;;;;5128385;28;20027;-78
2021/09/27 12:16:03;;;;;;;3.42;1.00;;;20.10;72.40;;;;;;5103741;28;20278;-78
2021/09/27 12:18:44;;;;;;;4.47;1.42;;;20.30;70.90;;;;;;5090004;28;20472;-76
2021/09/27 12:21:43;;;;;;;6.05;1.38;;;20.30;70.20;;;;;;5083911;28;20451;-79
2021/09/27 12:24:12;;;;;;;6.77;1.87;;;20.30;69.90;;;;;;5076418;28;20508;-79
2021/09/27 12:26:51;;;;;;;5.50;1.20;;;20.30;70.40;;;;;;5075409;28;20028;-78
2021/09/27 12:29:25;;;;;;;3.70;1.20;;;20.40;70.50;;;;;;5083795;28;20208;-79
2021/09/27 12:31:56;;;;;;;3.45;1.48;;;20.40;68.80;;;;;;5077902;28;20031;-79
2021/09/27 12:34:31;;;;;;;6.68;1.65;;;20.40;68.30;;;;;;5075560;28;20107;-78
2021/09/27 12:36:57;;;;;;;3.75;1.13;;;20.40;69.50;;;;;;5074152;28;20500;-79
2021/09/27 12:39:26;;;;;;;5.60;1.58;;;20.40;70.10;;;;;;5075687;28;20031;-80
2021/09/27 12:41:53;;;;;;;2.78;0.95;;;20.40;69.90;;;;;;5090958;28;20032;-79
2021/09/27 12:44:37;;;;;;;5.47;1.10;;;20.40;70.00;;;;;;5095984;28;20035;-77
2021/09/27 12:47:07;;;;;;;5.18;1.30;;;20.40;71.00;;;;;;5095032;28;20028;-79
2021/09/27 12:49:41;;;;;;;3.90;1.20;;;20.40;68.90;;;;;;5095905;28;20535;-82
2021/09/27 12:52:10;;;;;;;5.70;1.65;;;20.30;69.10;;;;;;5075102;28;20583;-77
2021/09/27 12:54:47;;;;;;;6.20;1.20;;;20.40;68.60;;;;;;5099642;28;20023;-75
2021/09/27 12:57:21;;;;;;;2.38;0.85;;;20.40;68.40;;;;;;5096144;28;20101;-78
2021/09/27 12:59:48;;;;;;;6.28;1.20;;;20.50;66.10;;;;;;5083731;28;20040;-79
2021/09/27 13:02:15;;;;;;;11.23;1.70;;;20.50;67.40;;;;;;5073928;28;20393;-82
2021/09/27 13:04:50;;;;;;;7.53;1.40;;;20.50;66.40;;;;;;5075419;28;20024;-81
2021/09/27 13:07:18;;;;;;;2.30;0.95;;;20.50;66.90;;;;;;5075212;28;20389;-80
2021/09/27 13:10:02;;;;;;;5.22;1.30;;;20.50;67.10;;;;;;5079250;28;20044;-75
2021/09/27 13:12:40;;;;;;;4.40;1.20;;;20.50;67.60;;;;;;5094261;28;20099;-77
2021/09/27 13:15:14;;;;;;;2.85;1.05;;;20.40;67.10;;;;;;5095397;28;20024;-77
2021/09/27 13:18:00;;;;;;;4.43;0.90;;;20.30;68.10;;;;;;5090225;28;20103;-76
2021/09/27 13:20:59;;;;;;;3.22;1.00;;;20.30;68.30;;;;;;5095344;28;20028;-78
2021/09/27 13:23:51;;;;;;;6.33;1.60;;;20.30;68.10;;;;;;5082465;28;20029;-75
2021/09/27 13:26:22;;;;;;;3.83;1.40;;;20.30;68.70;;;;;;5074755;28;20267;-77
2021/09/27 13:28:54;;;;;;;5.57;1.27;;;20.30;70.30;;;;;;5074453;28;20557;-77
2021/09/27 13:31:24;;;;;;;6.93;1.33;;;20.30;70.50;;;;;;5074491;28;20029;-76
2021/09/27 13:33:57;;;;;;;4.82;1.00;;;20.30;70.70;;;;;;5082561;28;20021;-76
2021/09/27 13:36:43;;;;;;;3.05;1.20;;;20.30;70.60;;;;;;5073428;28;20032;-77
2021/09/27 13:39:15;;;;;;;5.50;1.10;;;20.30;69.60;;;;;;5081428;28;20082;-75